createdAt,value
2024-01-28T00:02:31.691Z,1.38
2024-01-28T00:05:35.315Z,1.38
2024-01-28T00:08:38.301Z,1.39
2024-01-28T00:11:41.255Z,1.40
2024-01-28T00:14:44.359Z,1.43
2024-01-28T00:17:47.255Z,1.46
2024-01-28T00:20:50.246Z,1.47
2024-01-28T00:23:53.648Z,1.51
2024-01-28T00:26:56.571Z,1.54
2024-01-28T00:29:59.541Z,1.56
2024-01-28T00:33:02.708Z,1.57
2024-01-28T00:36:06.290Z,1.60
2024-01-28T00:39:09.189Z,1.62
2024-01-28T00:42:12.037Z,1.66
2024-01-28T00:45:15.047Z,1.68
2024-01-28T00:48:18.063Z,1.71
2024-01-28T00:51:21.061Z,1.73
2024-01-28T00:54:25.260Z,1.73
2024-01-28T00:57:28.292Z,1.74
2024-01-28T01:00:32.471Z,1.74
2024-01-28T01:03:35.632Z,1.75
2024-01-28T01:06:41.011Z,1.76
2024-01-28T01:09:44.118Z,1.79
2024-01-28T01:12:47.171Z,1.80
2024-01-28T01:15:50.055Z,1.79
2024-01-28T01:18:53.158Z,1.79
2024-01-28T01:21:58.225Z,1.79
2024-01-28T01:25:01.496Z,1.81
2024-01-28T01:28:04.933Z,1.82
2024-01-28T01:31:07.889Z,1.85
2024-01-28T01:34:10.995Z,1.86
2024-01-28T01:37:13.969Z,1.90
2024-01-28T01:40:17.080Z,1.93
2024-01-28T01:43:21.220Z,1.96
2024-01-28T01:46:24.028Z,1.97
2024-01-28T01:49:28.462Z,1.95
2024-01-28T01:52:31.923Z,1.94
2024-01-28T01:55:36.299Z,1.95
2024-01-28T01:58:39.617Z,1.98
2024-01-28T02:01:43.779Z,2.01
2024-01-28T02:04:46.709Z,2.04
2024-01-28T02:07:49.661Z,2.05
2024-01-28T02:10:52.526Z,2.04
2024-01-28T02:13:55.384Z,2.05
2024-01-28T02:17:02.588Z,2.06
2024-01-28T02:20:05.762Z,2.08
2024-01-28T02:23:09.160Z,2.10
2024-01-28T02:26:12.570Z,2.10
2024-01-28T02:29:15.529Z,2.12
2024-01-28T02:32:19.730Z,2.15
2024-01-28T02:35:22.615Z,2.15
2024-01-28T02:38:25.481Z,2.16
2024-01-28T02:41:28.332Z,2.17
2024-01-28T02:44:31.369Z,2.22
2024-01-28T02:47:34.195Z,2.24
2024-01-28T02:50:37.023Z,2.23
2024-01-28T02:53:39.961Z,2.27
2024-01-28T02:56:43.544Z,2.31
2024-01-28T02:59:46.395Z,2.32
2024-01-28T03:02:49.894Z,2.31
2024-01-28T03:05:53.179Z,2.31
2024-01-28T03:08:55.955Z,2.33
2024-01-28T03:11:59.120Z,2.35
2024-01-28T03:15:02.203Z,2.36
2024-01-28T03:18:05.346Z,2.35
2024-01-28T03:21:08.567Z,2.33
2024-01-28T03:24:11.534Z,2.30
2024-01-28T03:27:14.655Z,2.30
2024-01-28T03:30:18.681Z,2.30
2024-01-28T03:33:21.926Z,2.25
2024-01-28T03:36:25.691Z,2.21
2024-01-28T03:39:28.675Z,2.21
2024-01-28T03:42:32.109Z,2.20
2024-01-28T03:45:35.122Z,2.22
2024-01-28T03:48:38.110Z,2.24
2024-01-28T03:51:41.038Z,2.25
2024-01-28T03:54:44.047Z,2.29
2024-01-28T03:57:47.532Z,2.31
2024-01-28T04:00:50.627Z,2.36
2024-01-28T04:03:58.683Z,2.41
2024-01-28T04:07:02.816Z,2.42
2024-01-28T04:10:06.776Z,2.44
2024-01-28T04:13:09.614Z,2.46
2024-01-28T04:16:12.457Z,2.47
2024-01-28T04:19:15.360Z,2.45
2024-01-28T04:22:18.776Z,2.45
2024-01-28T04:25:21.703Z,2.46
2024-01-28T04:28:26.562Z,2.45
2024-01-28T04:31:30.820Z,2.43
2024-01-28T04:34:35.201Z,2.41
2024-01-28T04:37:38.201Z,2.39
2024-01-28T04:40:41.558Z,2.39
2024-01-28T04:43:44.515Z,2.36
2024-01-28T04:46:47.702Z,2.35
2024-01-28T04:49:50.784Z,2.32
2024-01-28T04:52:53.880Z,2.31
2024-01-28T04:55:56.678Z,2.32
2024-01-28T04:58:59.787Z,2.32
2024-01-28T05:02:03.296Z,2.30
2024-01-28T05:05:06.538Z,2.31
2024-01-28T05:08:10.341Z,2.33
2024-01-28T05:11:13.219Z,2.38
2024-01-28T05:14:16.050Z,2.39
2024-01-28T05:17:19.124Z,2.40
2024-01-28T05:20:23.013Z,2.41
2024-01-28T05:23:25.952Z,2.42
2024-01-28T05:26:28.753Z,2.42
2024-01-28T05:29:31.585Z,2.40
2024-01-28T05:32:34.552Z,2.39
2024-01-28T05:35:38.205Z,2.39
2024-01-28T05:38:41.651Z,2.39
2024-01-28T05:41:46.704Z,2.38
2024-01-28T05:44:51.043Z,2.38
2024-01-28T05:47:54.121Z,2.42
2024-01-28T05:50:57.230Z,2.41
2024-01-28T05:54:00.096Z,2.42
2024-01-28T05:57:03.065Z,2.41
2024-01-28T06:00:07.475Z,2.44
2024-01-28T06:03:11.967Z,2.46
2024-01-28T06:06:15.220Z,2.48
2024-01-28T06:09:19.533Z,2.49
2024-01-28T06:12:22.529Z,2.51
2024-01-28T06:15:25.640Z,2.56
2024-01-28T06:18:28.693Z,2.58
2024-01-28T06:21:31.625Z,2.58
2024-01-28T06:24:36.707Z,2.59
2024-01-28T06:27:39.689Z,2.59
2024-01-28T06:30:42.738Z,2.61
2024-01-28T06:33:45.746Z,2.63
2024-01-28T06:36:49.195Z,2.65
2024-01-28T06:39:53.367Z,2.67
2024-01-28T06:42:56.327Z,2.64
2024-01-28T06:46:00.878Z,2.66
2024-01-28T06:49:05.175Z,2.67
2024-01-28T06:52:08.121Z,2.71
2024-01-28T06:55:11.548Z,2.74
2024-01-28T06:58:14.451Z,2.77
2024-01-28T07:01:18.137Z,2.77
2024-01-28T07:04:21.264Z,2.79
2024-01-28T07:07:24.399Z,2.81
2024-01-28T07:10:29.226Z,2.86
2024-01-28T07:13:32.353Z,2.89
2024-01-28T07:16:36.617Z,2.89
2024-01-28T07:19:42.007Z,2.88
2024-01-28T07:22:45.277Z,2.91
2024-01-28T07:25:49.738Z,2.93
2024-01-28T07:28:52.752Z,2.97
2024-01-28T07:31:55.804Z,3.01
2024-01-28T07:34:58.875Z,3.04
2024-01-28T07:38:01.779Z,3.03
2024-01-28T07:41:05.090Z,3.03
2024-01-28T07:44:08.269Z,3.03
2024-01-28T07:47:11.150Z,3.06
2024-01-28T07:50:14.286Z,3.07
2024-01-28T07:53:17.312Z,3.09
2024-01-28T07:56:20.136Z,3.14
2024-01-28T07:59:23.480Z,3.20
2024-01-28T08:02:26.334Z,3.25
2024-01-28T08:05:29.162Z,3.29
2024-01-28T08:08:34.132Z,3.36
2024-01-28T08:11:38.039Z,3.43
2024-01-28T08:14:40.941Z,3.46
2024-01-28T08:17:45.582Z,3.55
2024-01-28T08:20:48.612Z,3.62
2024-01-28T08:23:51.499Z,3.70
2024-01-28T08:26:54.617Z,3.76
2024-01-28T08:29:58.148Z,3.83
2024-01-28T08:33:01.079Z,3.91
2024-01-28T08:36:04.204Z,3.98
2024-01-28T08:39:07.160Z,4.05
2024-01-28T08:42:10.252Z,4.09
2024-01-28T08:45:13.304Z,4.19
2024-01-28T08:48:16.420Z,4.31
2024-01-28T08:51:19.493Z,4.38
2024-01-28T08:54:22.408Z,4.46
2024-01-28T08:57:25.688Z,4.51
2024-01-28T09:00:28.843Z,4.55
2024-01-28T09:03:32.744Z,4.58
2024-01-28T09:06:37.217Z,4.59
2024-01-28T09:09:40.680Z,4.60
2024-01-28T09:12:43.665Z,4.60
2024-01-28T09:15:46.584Z,4.61
2024-01-28T09:18:49.445Z,4.63
2024-01-28T09:21:52.792Z,4.63
2024-01-28T09:24:55.869Z,4.70
2024-01-28T09:27:58.750Z,4.71
2024-01-28T09:31:01.721Z,4.70
2024-01-28T09:34:05.633Z,4.75
2024-01-28T09:37:09.223Z,4.84
2024-01-28T09:40:13.205Z,4.92
2024-01-28T09:43:31.436Z,4.99
2024-01-28T09:46:36.929Z,5.04
2024-01-28T09:49:41.345Z,5.08
2024-01-28T09:52:44.385Z,5.11
2024-01-28T09:55:47.344Z,5.16
2024-01-28T09:58:50.805Z,5.20
2024-01-28T10:01:54.374Z,5.20
2024-01-28T10:04:57.826Z,5.27
2024-01-28T10:08:03.477Z,5.36
2024-01-28T10:11:06.510Z,5.39
2024-01-28T10:14:11.621Z,5.41
2024-01-28T10:17:14.845Z,5.43
2024-01-28T10:20:19.603Z,5.42
2024-01-28T10:23:22.562Z,5.38
2024-01-28T10:26:25.395Z,5.35
2024-01-28T10:29:29.330Z,5.35
2024-01-28T10:32:32.254Z,5.32
2024-01-28T10:35:35.171Z,5.29
2024-01-28T10:38:44.103Z,5.26
2024-01-28T10:41:55.502Z,5.22
2024-01-28T10:45:00.897Z,5.19
2024-01-28T10:48:08.822Z,5.18
2024-01-28T10:51:15.134Z,5.14
2024-01-28T10:54:18.311Z,5.11
2024-01-28T10:57:22.524Z,5.06
2024-01-28T11:00:27.709Z,5.06
2024-01-28T11:03:31.096Z,5.04
2024-01-28T11:06:34.490Z,5.01
2024-01-28T11:09:38.549Z,5.12
2024-01-28T11:12:41.947Z,5.15
2024-01-28T11:15:46.732Z,5.14
2024-01-28T11:19:05.496Z,5.13
2024-01-28T11:22:15.502Z,5.18
2024-01-28T11:25:26.516Z,5.22
2024-01-28T11:28:30.689Z,5.22
2024-01-28T11:31:35.581Z,5.19
2024-01-28T11:34:38.665Z,5.14
2024-01-28T11:37:59.587Z,5.11
2024-01-28T11:41:03.531Z,5.09
2024-01-28T11:44:08.922Z,5.10
2024-01-28T11:47:14.404Z,5.09
2024-01-28T11:50:17.832Z,5.10
2024-01-28T11:53:20.744Z,5.11
2024-01-28T11:56:23.729Z,5.11
2024-01-28T11:59:26.567Z,5.11
2024-01-28T12:02:29.453Z,5.11
2024-01-28T12:05:32.402Z,5.12
2024-01-28T12:08:40.541Z,5.13
2024-01-28T12:11:43.957Z,5.13
2024-01-28T12:14:46.896Z,5.14
2024-01-28T12:17:52.471Z,5.14
2024-01-28T12:20:55.411Z,5.14
2024-01-28T12:24:05.181Z,5.15
2024-01-28T12:27:08.314Z,5.15
2024-01-28T12:30:11.707Z,5.19
2024-01-28T12:33:14.779Z,5.19
2024-01-28T12:36:18.453Z,5.21
2024-01-28T12:39:21.588Z,5.23
2024-01-28T12:42:24.545Z,5.24
2024-01-28T12:45:27.707Z,5.21
2024-01-28T12:48:30.907Z,5.23
2024-01-28T12:51:33.995Z,5.23
2024-01-28T12:54:37.018Z,5.23
2024-01-28T12:57:40.611Z,5.21
2024-01-28T13:00:44.311Z,5.22
2024-01-28T13:03:47.765Z,5.20
2024-01-28T13:06:50.771Z,5.19
2024-01-28T13:09:53.837Z,5.15
2024-01-28T13:12:57.223Z,5.13
2024-01-28T13:16:01.351Z,5.12
2024-01-28T13:19:04.506Z,5.11
2024-01-28T13:22:07.502Z,5.11
2024-01-28T13:25:11.571Z,5.22
2024-01-28T13:28:14.562Z,5.29
2024-01-28T13:31:18.108Z,5.27
2024-01-28T13:34:21.321Z,5.31
2024-01-28T13:37:24.307Z,5.30
2024-01-28T13:40:27.146Z,5.27
2024-01-28T13:43:35.612Z,5.24
2024-01-28T13:46:38.700Z,5.21
2024-01-28T13:49:41.674Z,5.17
2024-01-28T13:52:44.569Z,5.12
2024-01-28T13:55:47.645Z,5.08
2024-01-28T13:58:50.622Z,5.08
2024-01-28T14:01:53.433Z,5.07
2024-01-28T14:04:56.315Z,5.07
2024-01-28T14:07:59.295Z,5.07
2024-01-28T14:11:02.300Z,5.06
2024-01-28T14:14:05.098Z,5.05
2024-01-28T14:17:10.246Z,5.05
2024-01-28T14:20:13.233Z,5.05
2024-01-28T14:23:16.129Z,5.04
2024-01-28T14:26:19.229Z,5.00
2024-01-28T14:29:23.295Z,4.98
2024-01-28T14:32:27.650Z,4.98
2024-01-28T14:35:30.499Z,4.96
2024-01-28T14:38:34.430Z,4.92
2024-01-28T14:41:37.265Z,4.88
2024-01-28T14:44:40.054Z,4.87
2024-01-28T14:47:43.977Z,4.85
2024-01-28T14:50:46.850Z,4.84
2024-01-28T14:53:49.732Z,4.80
2024-01-28T14:56:52.612Z,4.79
2024-01-28T14:59:56.374Z,4.78
2024-01-28T15:03:00.123Z,4.74
2024-01-28T15:06:03.305Z,4.71
2024-01-28T15:09:07.663Z,4.68
2024-01-28T15:12:10.472Z,4.68
2024-01-28T15:15:15.656Z,4.67
2024-01-28T15:18:18.984Z,4.65
2024-01-28T15:21:25.699Z,4.63
2024-01-28T15:24:28.610Z,4.62
2024-01-28T15:27:31.459Z,4.61
2024-01-28T15:30:34.520Z,4.60
2024-01-28T15:33:37.583Z,4.58
2024-01-28T15:36:40.992Z,4.56
2024-01-28T15:39:43.973Z,4.54
2024-01-28T15:42:48.371Z,4.53
2024-01-28T15:45:51.819Z,4.51
2024-01-28T15:48:56.417Z,4.50
2024-01-28T15:51:59.493Z,4.49
2024-01-28T15:55:02.436Z,4.48
2024-01-28T15:58:05.521Z,4.45
2024-01-28T16:01:09.157Z,4.42
2024-01-28T16:04:12.169Z,4.42
2024-01-28T16:07:15.329Z,4.38
2024-01-28T16:10:18.383Z,4.34
2024-01-28T16:13:21.296Z,4.34
2024-01-28T16:16:24.399Z,4.36
2024-01-28T16:19:28.375Z,4.41
2024-01-28T16:22:31.358Z,4.41
2024-01-28T16:25:34.638Z,4.39
2024-01-28T16:28:37.615Z,4.37
2024-01-28T16:31:40.673Z,4.32
2024-01-28T16:34:43.723Z,4.25
2024-01-28T16:37:51.362Z,4.22
2024-01-28T16:40:54.245Z,4.16
2024-01-28T16:43:57.192Z,4.14
2024-01-28T16:47:00.372Z,4.13
2024-01-28T16:50:05.199Z,4.11
2024-01-28T16:53:08.161Z,4.08
2024-01-28T16:56:11.805Z,4.07
2024-01-28T16:59:15.044Z,4.06
2024-01-28T17:02:18.056Z,4.06
2024-01-28T17:05:21.043Z,4.06
2024-01-28T17:08:25.180Z,4.04
2024-01-28T17:11:27.988Z,4.01
2024-01-28T17:14:31.047Z,3.99
2024-01-28T17:17:34.085Z,3.98
2024-01-28T17:20:37.353Z,3.96
2024-01-28T17:23:40.936Z,3.96
2024-01-28T17:26:45.790Z,3.96
2024-01-28T17:29:49.326Z,3.97
2024-01-28T17:32:52.262Z,3.95
2024-01-28T17:35:55.360Z,3.93
2024-01-28T17:38:58.265Z,3.90
2024-01-28T17:42:01.217Z,3.90
2024-01-28T17:45:05.734Z,3.89
2024-01-28T17:48:08.703Z,3.86
2024-01-28T17:51:11.681Z,3.82
2024-01-28T17:54:15.948Z,3.80
2024-01-28T17:57:19.943Z,3.82
2024-01-28T18:00:22.954Z,3.84
2024-01-28T18:03:26.003Z,3.83
2024-01-28T18:06:29.028Z,3.82
2024-01-28T18:09:32.111Z,3.82
2024-01-28T18:12:35.182Z,3.84
2024-01-28T18:15:38.446Z,3.85
2024-01-28T18:18:42.449Z,3.87
2024-01-28T18:21:45.570Z,3.88
2024-01-28T18:24:49.929Z,3.88
2024-01-28T18:27:54.348Z,3.88
2024-01-28T18:30:57.272Z,3.87
2024-01-28T18:34:02.213Z,3.86
2024-01-28T18:37:05.418Z,3.88
2024-01-28T18:40:11.084Z,3.87
2024-01-28T18:43:14.019Z,3.85
2024-01-28T18:46:17.987Z,3.83
2024-01-28T18:49:22.774Z,3.83
2024-01-28T18:52:25.789Z,3.84
2024-01-28T18:55:28.931Z,3.84
2024-01-28T18:58:31.816Z,3.83
2024-01-28T19:01:34.843Z,3.79
2024-01-28T19:04:37.953Z,3.76
2024-01-28T19:07:41.026Z,3.72
2024-01-28T19:10:45.169Z,3.70
2024-01-28T19:13:49.311Z,3.71
2024-01-28T19:16:52.170Z,3.70
2024-01-28T19:19:55.133Z,3.70
2024-01-28T19:22:57.967Z,3.72
2024-01-28T19:26:00.933Z,3.72
2024-01-28T19:29:04.241Z,3.73
2024-01-28T19:32:07.615Z,3.72
2024-01-28T19:35:10.637Z,3.71
2024-01-28T19:38:13.512Z,3.68
2024-01-28T19:41:16.437Z,3.66
2024-01-28T19:44:19.774Z,3.65
2024-01-28T19:47:22.757Z,3.63
2024-01-28T19:50:25.570Z,3.62
2024-01-28T19:53:28.718Z,3.59
2024-01-28T19:56:31.542Z,3.58
2024-01-28T19:59:34.562Z,3.58
2024-01-28T20:02:37.772Z,3.56
2024-01-28T20:05:42.105Z,3.53
2024-01-28T20:08:46.207Z,3.52
2024-01-28T20:11:49.187Z,3.50
2024-01-28T20:14:52.444Z,3.47
2024-01-28T20:17:55.356Z,3.44
2024-01-28T20:20:59.348Z,3.43
2024-01-28T20:24:02.249Z,3.41
2024-01-28T20:27:05.422Z,3.39
2024-01-28T20:30:09.381Z,3.34
2024-01-28T20:33:12.407Z,3.28
2024-01-28T20:36:15.511Z,3.23
2024-01-28T20:39:18.418Z,3.19
2024-01-28T20:42:21.334Z,3.12
2024-01-28T20:45:24.376Z,3.07
2024-01-28T20:48:27.382Z,3.03
2024-01-28T20:51:30.444Z,3.03
2024-01-28T20:54:33.756Z,3.03
2024-01-28T20:57:37.057Z,3.04
2024-01-28T21:00:40.500Z,3.01
2024-01-28T21:03:43.358Z,2.95
2024-01-28T21:06:46.487Z,2.88
2024-01-28T21:09:50.039Z,2.78
2024-01-28T21:12:53.162Z,2.73
2024-01-28T21:15:56.110Z,2.71
2024-01-28T21:18:59.067Z,2.70
2024-01-28T21:22:02.128Z,2.71
2024-01-28T21:25:05.689Z,2.69
2024-01-28T21:28:08.703Z,2.64
2024-01-28T21:31:11.664Z,2.59
2024-01-28T21:34:14.954Z,2.57
2024-01-28T21:37:17.981Z,2.56
2024-01-28T21:40:20.795Z,2.57
2024-01-28T21:43:23.691Z,2.57
2024-01-28T21:46:26.574Z,2.57
2024-01-28T21:49:29.521Z,2.58
2024-01-28T21:52:32.357Z,2.56
2024-01-28T21:55:38.267Z,2.53
2024-01-28T21:58:41.553Z,2.49
2024-01-28T22:01:44.881Z,2.47
2024-01-28T22:04:47.837Z,2.42
2024-01-28T22:07:50.870Z,2.39
2024-01-28T22:10:53.881Z,2.33
2024-01-28T22:13:56.735Z,2.27
2024-01-28T22:16:59.598Z,2.25
2024-01-28T22:20:04.086Z,2.25
2024-01-28T22:23:07.070Z,2.25
2024-01-28T22:26:10.044Z,2.24
2024-01-28T22:29:13.550Z,2.24
2024-01-28T22:32:16.793Z,2.26
2024-01-28T22:35:19.971Z,2.26
2024-01-28T22:38:22.931Z,2.25
2024-01-28T22:41:25.832Z,2.24
2024-01-28T22:44:28.661Z,2.23
2024-01-28T22:47:31.640Z,2.21
2024-01-28T22:50:41.417Z,2.22
2024-01-28T22:53:44.714Z,2.18
2024-01-28T22:56:47.599Z,2.15
2024-01-28T22:59:50.456Z,2.11
2024-01-28T23:02:54.289Z,2.05
2024-01-28T23:05:58.849Z,1.98
2024-01-28T23:09:02.287Z,1.93
2024-01-28T23:12:06.412Z,1.91
2024-01-28T23:15:15.268Z,1.90
2024-01-28T23:18:24.745Z,1.89
2024-01-28T23:21:27.740Z,1.86
2024-01-28T23:24:30.764Z,1.82
2024-01-28T23:27:33.699Z,1.80
2024-01-28T23:30:38.184Z,1.77
2024-01-28T23:33:41.234Z,1.72
2024-01-28T23:36:44.537Z,1.68
2024-01-28T23:39:47.470Z,1.63
2024-01-28T23:42:50.931Z,1.59
2024-01-28T23:45:53.921Z,1.56
2024-01-28T23:48:56.928Z,1.54
2024-01-28T23:52:00.675Z,1.53
2024-01-28T23:55:04.682Z,1.54
2024-01-28T23:58:07.746Z,1.52
